sensor_id;sensor_type;location;lat;lon;timestamp;temperature;humidity
20208;DHT22;10263;48.716;8.760;2023-02-23T00:02:17;7.40;99.90
20208;DHT22;10263;48.716;8.760;2023-02-23T00:04:43;7.40;99.90
20208;DHT22;10263;48.716;8.760;2023-02-23T00:07:10;7.40;99.90
20208;DHT22;10263;48.716;8.760;2023-02-23T00:09:38;7.40;99.90
20208;DHT22;10263;48.716;8.760;2023-02-23T00:12:05;7.40;99.90
20208;DHT22;10263;48.716;8.760;2023-02-23T00:14:36;7.30;99.90
20208;DHT22;10263;48.716;8.760;2023-02-23T00:17:04;7.40;99.90
20208;DHT22;10263;48.716;8.760;2023-02-23T00:19:36;7.40;99.90
20208;DHT22;10263;48.716;8.760;2023-02-23T00:22:03;7.40;99.90
20208;DHT22;10263;48.716;8.760;2023-02-23T00:24:30;7.40;99.90
20208;DHT22;10263;48.716;8.760;2023-02-23T00:26:57;7.40;99.90
20208;DHT22;10263;48.716;8.760;2023-02-23T00:29:32;7.30;99.90
20208;DHT22;10263;48.716;8.760;2023-02-23T00:32:04;7.40;99.90
20208;DHT22;10263;48.716;8.760;2023-02-23T00:34:31;7.30;99.90
20208;DHT22;10263;48.716;8.760;2023-02-23T00:37:03;7.30;99.90
20208;DHT22;10263;48.716;8.760;2023-02-23T00:39:30;7.30;99.90
20208;DHT22;10263;48.716;8.760;2023-02-23T00:41:57;7.30;99.90
20208;DHT22;10263;48.716;8.760;2023-02-23T00:44:27;7.20;99.90
20208;DHT22;10263;48.716;8.760;2023-02-23T00:46:54;7.30;99.90
20208;DHT22;10263;48.716;8.760;2023-02-23T00:49:21;7.20;99.90
20208;DHT22;10263;48.716;8.760;2023-02-23T00:51:48;7.30;99.90
20208;DHT22;10263;48.716;8.760;2023-02-23T00:54:18;7.20;99.90
20208;DHT22;10263;48.716;8.760;2023-02-23T00:56:46;7.30;99.90
20208;DHT22;10263;48.716;8.760;2023-02-23T00:59:14;7.30;99.90
20208;DHT22;10263;48.716;8.760;2023-02-23T01:01:41;7.30;99.90
20208;DHT22;10263;48.716;8.760;2023-02-23T01:04:08;7.30;99.90
20208;DHT22;10263;48.716;8.760;2023-02-23T01:06:36;7.30;99.90
20208;DHT22;10263;48.716;8.760;2023-02-23T01:09:06;7.30;99.90
20208;DHT22;10263;48.716;8.760;2023-02-23T01:11:35;7.20;99.90
20208;DHT22;10263;48.716;8.760;2023-02-23T01:14:02;7.30;99.90
20208;DHT22;10263;48.716;8.760;2023-02-23T01:16:33;7.20;99.90
20208;DHT22;10263;48.716;8.760;2023-02-23T01:19:03;7.20;99.90
20208;DHT22;10263;48.716;8.760;2023-02-23T01:21:32;7.20;99.90
20208;DHT22;10263;48.716;8.760;2023-02-23T01:23:59;7.20;99.90
20208;DHT22;10263;48.716;8.760;2023-02-23T01:26:28;7.20;99.90
20208;DHT22;10263;48.716;8.760;2023-02-23T01:28:58;7.20;99.90
20208;DHT22;10263;48.716;8.760;2023-02-23T01:31:27;7.20;99.90
20208;DHT22;10263;48.716;8.760;2023-02-23T01:33:55;7.20;99.90
20208;DHT22;10263;48.716;8.760;2023-02-23T01:36:23;7.20;99.90
20208;DHT22;10263;48.716;8.760;2023-02-23T01:38:51;7.20;99.90
20208;DHT22;10263;48.716;8.760;2023-02-23T01:41:19;7.20;99.90
20208;DHT22;10263;48.716;8.760;2023-02-23T01:43:56;7.20;99.90
20208;DHT22;10263;48.716;8.760;2023-02-23T01:46:23;7.10;99.90
20208;DHT22;10263;48.716;8.760;2023-02-23T01:48:50;7.10;99.90
20208;DHT22;10263;48.716;8.760;2023-02-23T01:51:24;7.10;99.90
20208;DHT22;10263;48.716;8.760;2023-02-23T01:53:55;7.10;99.90
20208;DHT22;10263;48.716;8.760;2023-02-23T01:56:29;7.10;99.90
20208;DHT22;10263;48.716;8.760;2023-02-23T01:59:04;7.10;99.90
20208;DHT22;10263;48.716;8.760;2023-02-23T02:01:33;7.10;99.90
20208;DHT22;10263;48.716;8.760;2023-02-23T02:04:03;7.10;99.90
20208;DHT22;10263;48.716;8.760;2023-02-23T02:06:34;7.10;99.90
20208;DHT22;10263;48.716;8.760;2023-02-23T02:09:04;7.10;99.90
20208;DHT22;10263;48.716;8.760;2023-02-23T02:11:33;7.10;99.90
20208;DHT22;10263;48.716;8.760;2023-02-23T02:14:06;7.10;99.90
20208;DHT22;10263;48.716;8.760;2023-02-23T02:16:47;7.10;99.90
20208;DHT22;10263;48.716;8.760;2023-02-23T02:22:53;7.10;99.90
20208;DHT22;10263;48.716;8.760;2023-02-23T02:25:44;7.10;99.90
20208;DHT22;10263;48.716;8.760;2023-02-23T02:34:47;7.10;99.90
20208;DHT22;10263;48.716;8.760;2023-02-23T02:37:34;7.00;99.90
20208;DHT22;10263;48.716;8.760;2023-02-23T02:40:08;7.00;99.90
20208;DHT22;10263;48.716;8.760;2023-02-23T02:42:53;7.00;99.90
20208;DHT22;10263;48.716;8.760;2023-02-23T02:45:27;7.00;99.90
20208;DHT22;10263;48.716;8.760;2023-02-23T02:48:00;7.00;99.90
20208;DHT22;10263;48.716;8.760;2023-02-23T02:50:35;7.00;99.90
20208;DHT22;10263;48.716;8.760;2023-02-23T02:53:08;7.00;99.90
20208;DHT22;10263;48.716;8.760;2023-02-23T02:55:38;7.00;99.90
20208;DHT22;10263;48.716;8.760;2023-02-23T02:58:09;7.00;99.90
20208;DHT22;10263;48.716;8.760;2023-02-23T03:00:39;7.00;99.90
20208;DHT22;10263;48.716;8.760;2023-02-23T03:03:31;7.00;99.90
20208;DHT22;10263;48.716;8.760;2023-02-23T03:06:18;7.00;99.90
20208;DHT22;10263;48.716;8.760;2023-02-23T03:09:14;7.00;99.90
20208;DHT22;10263;48.716;8.760;2023-02-23T03:12:06;7.00;99.90
20208;DHT22;10263;48.716;8.760;2023-02-23T03:14:58;6.90;99.90
20208;DHT22;10263;48.716;8.760;2023-02-23T03:17:48;7.00;99.90
20208;DHT22;10263;48.716;8.760;2023-02-23T03:20:44;8.20;99.90
20208;DHT22;10263;48.716;8.760;2023-02-23T03:23:39;6.90;99.90
20208;DHT22;10263;48.716;8.760;2023-02-23T03:26:30;6.90;99.90
20208;DHT22;10263;48.716;8.760;2023-02-23T03:29:21;6.90;99.90
20208;DHT22;10263;48.716;8.760;2023-02-23T03:32:12;6.90;99.90
20208;DHT22;10263;48.716;8.760;2023-02-23T03:35:03;6.90;99.90
20208;DHT22;10263;48.716;8.760;2023-02-23T03:37:53;6.90;99.90
20208;DHT22;10263;48.716;8.760;2023-02-23T03:40:41;6.90;99.90
20208;DHT22;10263;48.716;8.760;2023-02-23T03:43:33;6.90;99.90
20208;DHT22;10263;48.716;8.760;2023-02-23T03:46:19;7.00;99.90
20208;DHT22;10263;48.716;8.760;2023-02-23T03:49:07;6.90;99.90
20208;DHT22;10263;48.716;8.760;2023-02-23T03:51:56;7.00;99.90
20208;DHT22;10263;48.716;8.760;2023-02-23T03:54:44;7.00;99.90
20208;DHT22;10263;48.716;8.760;2023-02-23T03:57:32;7.00;99.90
20208;DHT22;10263;48.716;8.760;2023-02-23T04:00:24;6.90;99.90
20208;DHT22;10263;48.716;8.760;2023-02-23T04:03:11;6.90;99.90
20208;DHT22;10263;48.716;8.760;2023-02-23T04:05:59;6.90;99.90
20208;DHT22;10263;48.716;8.760;2023-02-23T04:08:46;6.90;99.90
20208;DHT22;10263;48.716;8.760;2023-02-23T04:11:39;6.90;99.90
20208;DHT22;10263;48.716;8.760;2023-02-23T04:14:28;6.90;99.90
20208;DHT22;10263;48.716;8.760;2023-02-23T04:16:58;6.90;99.90
20208;DHT22;10263;48.716;8.760;2023-02-23T04:19:25;6.90;99.90
20208;DHT22;10263;48.716;8.760;2023-02-23T04:21:53;7.00;99.90
20208;DHT22;10263;48.716;8.760;2023-02-23T04:24:20;6.90;99.90
20208;DHT22;10263;48.716;8.760;2023-02-23T04:26:47;7.00;99.90
20208;DHT22;10263;48.716;8.760;2023-02-23T04:29:14;7.00;99.90
20208;DHT22;10263;48.716;8.760;2023-02-23T04:31:41;6.90;99.90
20208;DHT22;10263;48.716;8.760;2023-02-23T04:34:09;6.90;99.90
20208;DHT22;10263;48.716;8.760;2023-02-23T04:36:36;6.90;99.90
20208;DHT22;10263;48.716;8.760;2023-02-23T04:39:03;6.90;99.90
20208;DHT22;10263;48.716;8.760;2023-02-23T04:41:29;7.00;99.90
20208;DHT22;10263;48.716;8.760;2023-02-23T04:43:56;6.90;99.90
20208;DHT22;10263;48.716;8.760;2023-02-23T04:46:23;6.90;99.90
20208;DHT22;10263;48.716;8.760;2023-02-23T04:48:50;6.90;99.90
20208;DHT22;10263;48.716;8.760;2023-02-23T04:51:18;6.90;99.90
20208;DHT22;10263;48.716;8.760;2023-02-23T04:53:45;6.90;99.90
20208;DHT22;10263;48.716;8.760;2023-02-23T04:56:12;6.90;99.90
20208;DHT22;10263;48.716;8.760;2023-02-23T04:58:39;6.80;99.90
20208;DHT22;10263;48.716;8.760;2023-02-23T05:01:07;6.90;99.90
20208;DHT22;10263;48.716;8.760;2023-02-23T05:03:34;6.90;99.90
20208;DHT22;10263;48.716;8.760;2023-02-23T05:06:01;6.90;99.90
20208;DHT22;10263;48.716;8.760;2023-02-23T05:08:29;6.80;99.90
20208;DHT22;10263;48.716;8.760;2023-02-23T05:10:56;6.80;99.90
20208;DHT22;10263;48.716;8.760;2023-02-23T05:13:23;6.80;99.90
20208;DHT22;10263;48.716;8.760;2023-02-23T05:15:54;5.20;99.90
20208;DHT22;10263;48.716;8.760;2023-02-23T05:18:22;6.90;99.90
20208;DHT22;10263;48.716;8.760;2023-02-23T05:20:50;6.80;99.90
20208;DHT22;10263;48.716;8.760;2023-02-23T05:23:17;6.80;99.90
20208;DHT22;10263;48.716;8.760;2023-02-23T05:25:45;6.90;99.90
20208;DHT22;10263;48.716;8.760;2023-02-23T05:28:12;6.90;99.90
20208;DHT22;10263;48.716;8.760;2023-02-23T05:30:39;6.90;99.90
20208;DHT22;10263;48.716;8.760;2023-02-23T05:33:05;6.80;99.90
20208;DHT22;10263;48.716;8.760;2023-02-23T05:35:32;6.90;99.90
20208;DHT22;10263;48.716;8.760;2023-02-23T05:38:00;6.90;99.90
20208;DHT22;10263;48.716;8.760;2023-02-23T05:40:26;6.80;99.90
20208;DHT22;10263;48.716;8.760;2023-02-23T05:42:58;6.80;99.90
20208;DHT22;10263;48.716;8.760;2023-02-23T05:45:25;6.90;99.90
20208;DHT22;10263;48.716;8.760;2023-02-23T05:47:52;6.90;99.90
20208;DHT22;10263;48.716;8.760;2023-02-23T05:50:19;6.80;99.90
20208;DHT22;10263;48.716;8.760;2023-02-23T05:52:46;6.90;99.90
20208;DHT22;10263;48.716;8.760;2023-02-23T05:55:13;6.80;99.90
20208;DHT22;10263;48.716;8.760;2023-02-23T05:57:40;6.80;99.90
20208;DHT22;10263;48.716;8.760;2023-02-23T06:00:10;6.80;99.90
20208;DHT22;10263;48.716;8.760;2023-02-23T06:02:37;6.80;99.90
20208;DHT22;10263;48.716;8.760;2023-02-23T06:05:06;6.80;99.90
20208;DHT22;10263;48.716;8.760;2023-02-23T06:07:33;6.80;99.90
20208;DHT22;10263;48.716;8.760;2023-02-23T06:10:00;6.80;99.90
20208;DHT22;10263;48.716;8.760;2023-02-23T06:12:27;6.80;99.90
20208;DHT22;10263;48.716;8.760;2023-02-23T06:14:54;6.80;99.90
20208;DHT22;10263;48.716;8.760;2023-02-23T06:17:22;6.80;99.90
20208;DHT22;10263;48.716;8.760;2023-02-23T06:19:49;6.80;99.90
20208;DHT22;10263;48.716;8.760;2023-02-23T06:22:16;6.80;99.90
20208;DHT22;10263;48.716;8.760;2023-02-23T06:24:43;6.80;99.90
20208;DHT22;10263;48.716;8.760;2023-02-23T06:27:10;6.80;99.90
20208;DHT22;10263;48.716;8.760;2023-02-23T06:29:38;6.80;99.90
20208;DHT22;10263;48.716;8.760;2023-02-23T06:32:06;6.80;99.90
20208;DHT22;10263;48.716;8.760;2023-02-23T06:34:34;6.80;99.90
20208;DHT22;10263;48.716;8.760;2023-02-23T06:37:01;6.80;99.90
20208;DHT22;10263;48.716;8.760;2023-02-23T06:39:28;6.80;99.90
20208;DHT22;10263;48.716;8.760;2023-02-23T06:41:55;6.80;99.90
20208;DHT22;10263;48.716;8.760;2023-02-23T06:44:21;6.80;99.90
20208;DHT22;10263;48.716;8.760;2023-02-23T06:46:49;6.70;99.90
20208;DHT22;10263;48.716;8.760;2023-02-23T06:49:15;6.70;99.90
20208;DHT22;10263;48.716;8.760;2023-02-23T06:51:43;6.70;99.90
20208;DHT22;10263;48.716;8.760;2023-02-23T06:54:10;6.70;99.90
20208;DHT22;10263;48.716;8.760;2023-02-23T06:56:37;6.70;99.90
20208;DHT22;10263;48.716;8.760;2023-02-23T06:59:04;6.70;99.90
20208;DHT22;10263;48.716;8.760;2023-02-23T07:01:31;6.70;99.90
20208;DHT22;10263;48.716;8.760;2023-02-23T07:03:58;6.70;99.90
20208;DHT22;10263;48.716;8.760;2023-02-23T07:06:25;6.70;99.90
20208;DHT22;10263;48.716;8.760;2023-02-23T07:08:56;6.70;99.90
20208;DHT22;10263;48.716;8.760;2023-02-23T07:11:23;6.70;99.90
20208;DHT22;10263;48.716;8.760;2023-02-23T07:13:49;6.80;99.90
20208;DHT22;10263;48.716;8.760;2023-02-23T07:16:16;6.80;99.90
20208;DHT22;10263;48.716;8.760;2023-02-23T07:18:43;6.80;99.90
20208;DHT22;10263;48.716;8.760;2023-02-23T07:21:10;6.80;99.90
20208;DHT22;10263;48.716;8.760;2023-02-23T07:23:37;6.80;99.90
20208;DHT22;10263;48.716;8.760;2023-02-23T07:26:05;6.80;99.90
20208;DHT22;10263;48.716;8.760;2023-02-23T07:28:32;6.90;99.90
20208;DHT22;10263;48.716;8.760;2023-02-23T07:30:58;6.90;99.90
20208;DHT22;10263;48.716;8.760;2023-02-23T07:33:25;6.90;99.90
20208;DHT22;10263;48.716;8.760;2023-02-23T07:35:52;6.90;99.90
20208;DHT22;10263;48.716;8.760;2023-02-23T07:38:19;7.00;99.90
20208;DHT22;10263;48.716;8.760;2023-02-23T07:40:48;7.00;99.90
20208;DHT22;10263;48.716;8.760;2023-02-23T07:43:17;7.00;99.90
20208;DHT22;10263;48.716;8.760;2023-02-23T07:45:45;7.10;99.90
20208;DHT22;10263;48.716;8.760;2023-02-23T07:48:12;7.10;99.90
20208;DHT22;10263;48.716;8.760;2023-02-23T07:50:39;7.20;99.90
20208;DHT22;10263;48.716;8.760;2023-02-23T07:53:06;7.20;99.90
20208;DHT22;10263;48.716;8.760;2023-02-23T07:55:33;7.20;99.90
20208;DHT22;10263;48.716;8.760;2023-02-23T07:58:00;7.30;99.90
20208;DHT22;10263;48.716;8.760;2023-02-23T08:00:29;7.30;99.90
20208;DHT22;10263;48.716;8.760;2023-02-23T08:02:55;7.40;99.90
20208;DHT22;10263;48.716;8.760;2023-02-23T08:05:22;7.40;99.90
20208;DHT22;10263;48.716;8.760;2023-02-23T08:07:50;7.40;99.90
20208;DHT22;10263;48.716;8.760;2023-02-23T08:10:17;7.40;99.90
20208;DHT22;10263;48.716;8.760;2023-02-23T08:12:44;7.50;99.90
20208;DHT22;10263;48.716;8.760;2023-02-23T08:15:11;7.60;99.90
20208;DHT22;10263;48.716;8.760;2023-02-23T08:17:39;7.60;99.90
20208;DHT22;10263;48.716;8.760;2023-02-23T08:20:08;7.70;99.90
20208;DHT22;10263;48.716;8.760;2023-02-23T08:22:35;7.70;99.90
20208;DHT22;10263;48.716;8.760;2023-02-23T08:25:02;7.70;99.90
20208;DHT22;10263;48.716;8.760;2023-02-23T08:27:32;7.80;99.90
20208;DHT22;10263;48.716;8.760;2023-02-23T08:29:59;7.80;99.90
20208;DHT22;10263;48.716;8.760;2023-02-23T08:32:28;7.80;99.90
20208;DHT22;10263;48.716;8.760;2023-02-23T08:34:56;7.90;99.90
20208;DHT22;10263;48.716;8.760;2023-02-23T08:37:25;7.90;99.90
20208;DHT22;10263;48.716;8.760;2023-02-23T08:39:52;8.00;99.90
20208;DHT22;10263;48.716;8.760;2023-02-23T08:42:19;8.00;99.90
20208;DHT22;10263;48.716;8.760;2023-02-23T08:44:45;8.00;99.90
20208;DHT22;10263;48.716;8.760;2023-02-23T08:47:14;8.10;99.90
20208;DHT22;10263;48.716;8.760;2023-02-23T08:49:47;8.10;99.90
20208;DHT22;10263;48.716;8.760;2023-02-23T08:52:16;8.20;99.90
20208;DHT22;10263;48.716;8.760;2023-02-23T08:54:42;8.30;99.90
20208;DHT22;10263;48.716;8.760;2023-02-23T08:57:09;8.30;99.90
20208;DHT22;10263;48.716;8.760;2023-02-23T08:59:36;8.40;99.90
20208;DHT22;10263;48.716;8.760;2023-02-23T09:02:04;8.40;99.90
20208;DHT22;10263;48.716;8.760;2023-02-23T09:04:32;8.50;99.90
20208;DHT22;10263;48.716;8.760;2023-02-23T09:06:59;8.60;99.90
20208;DHT22;10263;48.716;8.760;2023-02-23T09:09:28;8.70;99.90
20208;DHT22;10263;48.716;8.760;2023-02-23T09:11:54;8.80;99.90
20208;DHT22;10263;48.716;8.760;2023-02-23T09:14:21;8.90;99.90
20208;DHT22;10263;48.716;8.760;2023-02-23T09:16:48;9.00;99.90
20208;DHT22;10263;48.716;8.760;2023-02-23T09:19:15;9.20;99.90
20208;DHT22;10263;48.716;8.760;2023-02-23T09:21:42;9.30;99.90
20208;DHT22;10263;48.716;8.760;2023-02-23T09:24:09;9.40;99.90
20208;DHT22;10263;48.716;8.760;2023-02-23T09:26:38;9.60;99.90
20208;DHT22;10263;48.716;8.760;2023-02-23T09:29:07;9.70;99.90
20208;DHT22;10263;48.716;8.760;2023-02-23T09:31:34;9.80;99.90
20208;DHT22;10263;48.716;8.760;2023-02-23T09:34:00;9.90;99.90
20208;DHT22;10263;48.716;8.760;2023-02-23T09:36:29;10.10;99.90
20208;DHT22;10263;48.716;8.760;2023-02-23T09:38:56;10.20;99.90
20208;DHT22;10263;48.716;8.760;2023-02-23T09:41:47;10.40;99.90
20208;DHT22;10263;48.716;8.760;2023-02-23T09:44:22;10.60;99.90
20208;DHT22;10263;48.716;8.760;2023-02-23T09:47:03;10.80;99.90
20208;DHT22;10263;48.716;8.760;2023-02-23T09:49:38;11.10;99.90
20208;DHT22;10263;48.716;8.760;2023-02-23T09:52:10;11.30;99.90
20208;DHT22;10263;48.716;8.760;2023-02-23T09:54:41;11.30;99.90
20208;DHT22;10263;48.716;8.760;2023-02-23T09:57:13;11.30;99.90
20208;DHT22;10263;48.716;8.760;2023-02-23T09:59:40;11.20;99.90
20208;DHT22;10263;48.716;8.760;2023-02-23T10:02:16;11.10;99.90
20208;DHT22;10263;48.716;8.760;2023-02-23T10:04:49;11.10;99.90
20208;DHT22;10263;48.716;8.760;2023-02-23T10:07:20;11.00;99.90
20208;DHT22;10263;48.716;8.760;2023-02-23T10:09:58;11.00;99.90
20208;DHT22;10263;48.716;8.760;2023-02-23T10:12:34;11.10;99.90
20208;DHT22;10263;48.716;8.760;2023-02-23T10:15:24;11.00;99.90
20208;DHT22;10263;48.716;8.760;2023-02-23T10:17:59;11.00;99.90
20208;DHT22;10263;48.716;8.760;2023-02-23T10:20:37;11.00;99.90
20208;DHT22;10263;48.716;8.760;2023-02-23T10:23:10;11.00;99.90
20208;DHT22;10263;48.716;8.760;2023-02-23T10:25:42;11.10;99.90
20208;DHT22;10263;48.716;8.760;2023-02-23T10:28:14;11.00;99.90
20208;DHT22;10263;48.716;8.760;2023-02-23T10:30:41;11.00;99.90
20208;DHT22;10263;48.716;8.760;2023-02-23T10:33:13;11.00;99.90
20208;DHT22;10263;48.716;8.760;2023-02-23T10:35:42;10.90;99.90
20208;DHT22;10263;48.716;8.760;2023-02-23T10:38:13;10.90;99.90
20208;DHT22;10263;48.716;8.760;2023-02-23T10:40:43;10.90;99.90
20208;DHT22;10263;48.716;8.760;2023-02-23T10:43:12;10.80;99.90
20208;DHT22;10263;48.716;8.760;2023-02-23T10:45:43;10.80;99.90
20208;DHT22;10263;48.716;8.760;2023-02-23T10:48:15;10.90;99.90
20208;DHT22;10263;48.716;8.760;2023-02-23T10:50:42;10.90;99.90
20208;DHT22;10263;48.716;8.760;2023-02-23T10:53:13;11.00;99.90
20208;DHT22;10263;48.716;8.760;2023-02-23T10:55:43;11.10;99.90
20208;DHT22;10263;48.716;8.760;2023-02-23T10:58:14;11.20;99.90
20208;DHT22;10263;48.716;8.760;2023-02-23T11:00:51;11.30;99.90
20208;DHT22;10263;48.716;8.760;2023-02-23T11:03:24;11.40;99.90
20208;DHT22;10263;48.716;8.760;2023-02-23T11:05:51;11.50;99.90
20208;DHT22;10263;48.716;8.760;2023-02-23T11:08:22;11.60;99.90
20208;DHT22;10263;48.716;8.760;2023-02-23T11:11:08;11.70;99.90
20208;DHT22;10263;48.716;8.760;2023-02-23T11:13:45;11.80;99.90
20208;DHT22;10263;48.716;8.760;2023-02-23T11:16:14;11.90;99.90
20208;DHT22;10263;48.716;8.760;2023-02-23T11:18:47;12.10;99.90
20208;DHT22;10263;48.716;8.760;2023-02-23T11:21:21;12.20;99.90
20208;DHT22;10263;48.716;8.760;2023-02-23T11:23:50;12.40;99.90
20208;DHT22;10263;48.716;8.760;2023-02-23T11:26:22;12.30;99.90
20208;DHT22;10263;48.716;8.760;2023-02-23T11:28:56;12.20;99.90
20208;DHT22;10263;48.716;8.760;2023-02-23T11:31:29;12.20;99.90
20208;DHT22;10263;48.716;8.760;2023-02-23T11:33:57;12.20;99.90
20208;DHT22;10263;48.716;8.760;2023-02-23T11:36:26;12.10;99.90
20208;DHT22;10263;48.716;8.760;2023-02-23T11:39:03;12.10;99.90
20208;DHT22;10263;48.716;8.760;2023-02-23T11:41:32;12.00;99.90
20208;DHT22;10263;48.716;8.760;2023-02-23T11:44:02;12.00;99.90
20208;DHT22;10263;48.716;8.760;2023-02-23T11:46:31;11.90;99.90
20208;DHT22;10263;48.716;8.760;2023-02-23T11:49:03;11.90;99.90
20208;DHT22;10263;48.716;8.760;2023-02-23T11:51:33;11.90;99.90
20208;DHT22;10263;48.716;8.760;2023-02-23T11:54:01;11.90;99.90
20208;DHT22;10263;48.716;8.760;2023-02-23T11:56:31;11.90;99.90
20208;DHT22;10263;48.716;8.760;2023-02-23T11:59:04;11.90;99.90
20208;DHT22;10263;48.716;8.760;2023-02-23T12:01:41;11.90;99.90
20208;DHT22;10263;48.716;8.760;2023-02-23T12:04:23;11.80;99.90
20208;DHT22;10263;48.716;8.760;2023-02-23T12:06:51;11.80;99.90
20208;DHT22;10263;48.716;8.760;2023-02-23T12:09:22;11.80;99.90
20208;DHT22;10263;48.716;8.760;2023-02-23T12:11:54;11.90;99.90
20208;DHT22;10263;48.716;8.760;2023-02-23T12:14:29;11.90;99.90
20208;DHT22;10263;48.716;8.760;2023-02-23T12:17:01;12.00;99.90
20208;DHT22;10263;48.716;8.760;2023-02-23T12:19:31;11.90;99.90
20208;DHT22;10263;48.716;8.760;2023-02-23T12:22:03;11.90;99.90
20208;DHT22;10263;48.716;8.760;2023-02-23T12:24:38;11.90;99.90
20208;DHT22;10263;48.716;8.760;2023-02-23T12:27:10;11.80;99.90
20208;DHT22;10263;48.716;8.760;2023-02-23T12:29:51;11.80;99.90
20208;DHT22;10263;48.716;8.760;2023-02-23T12:32:24;11.70;99.90
20208;DHT22;10263;48.716;8.760;2023-02-23T12:34:55;11.70;99.90
20208;DHT22;10263;48.716;8.760;2023-02-23T12:37:33;11.70;99.90
20208;DHT22;10263;48.716;8.760;2023-02-23T12:40:11;11.70;99.90
20208;DHT22;10263;48.716;8.760;2023-02-23T12:42:45;11.70;99.90
20208;DHT22;10263;48.716;8.760;2023-02-23T12:45:20;11.70;99.90
20208;DHT22;10263;48.716;8.760;2023-02-23T12:47:52;11.80;99.90
20208;DHT22;10263;48.716;8.760;2023-02-23T12:50:26;11.70;99.90
20208;DHT22;10263;48.716;8.760;2023-02-23T12:52:57;11.60;99.90
20208;DHT22;10263;48.716;8.760;2023-02-23T12:55:33;11.60;99.90
20208;DHT22;10263;48.716;8.760;2023-02-23T12:58:12;11.60;99.90
20208;DHT22;10263;48.716;8.760;2023-02-23T13:00:55;11.60;99.90
20208;DHT22;10263;48.716;8.760;2023-02-23T13:03:58;11.60;99.90
20208;DHT22;10263;48.716;8.760;2023-02-23T13:06:34;11.60;99.90
20208;DHT22;10263;48.716;8.760;2023-02-23T13:09:14;11.60;99.90
20208;DHT22;10263;48.716;8.760;2023-02-23T13:12:17;11.60;99.90
20208;DHT22;10263;48.716;8.760;2023-02-23T13:14:51;11.60;99.90
20208;DHT22;10263;48.716;8.760;2023-02-23T13:17:31;11.60;99.90
20208;DHT22;10263;48.716;8.760;2023-02-23T13:20:07;11.60;99.90
20208;DHT22;10263;48.716;8.760;2023-02-23T13:22:43;11.60;99.90
20208;DHT22;10263;48.716;8.760;2023-02-23T13:25:21;11.70;99.90
20208;DHT22;10263;48.716;8.760;2023-02-23T13:27:54;11.60;99.90
20208;DHT22;10263;48.716;8.760;2023-02-23T13:30:21;11.70;99.90
20208;DHT22;10263;48.716;8.760;2023-02-23T13:32:49;11.60;99.90
20208;DHT22;10263;48.716;8.760;2023-02-23T13:35:17;11.70;99.90
20208;DHT22;10263;48.716;8.760;2023-02-23T13:37:49;11.70;99.90
20208;DHT22;10263;48.716;8.760;2023-02-23T13:40:27;11.80;99.90
20208;DHT22;10263;48.716;8.760;2023-02-23T13:43:01;11.80;99.90
20208;DHT22;10263;48.716;8.760;2023-02-23T13:45:47;11.80;99.90
20208;DHT22;10263;48.716;8.760;2023-02-23T13:48:31;11.90;99.90
20208;DHT22;10263;48.716;8.760;2023-02-23T13:51:04;12.00;99.90
20208;DHT22;10263;48.716;8.760;2023-02-23T13:53:37;12.00;99.90
20208;DHT22;10263;48.716;8.760;2023-02-23T13:56:07;12.10;99.90
20208;DHT22;10263;48.716;8.760;2023-02-23T13:58:34;12.10;99.90
20208;DHT22;10263;48.716;8.760;2023-02-23T14:01:09;12.10;99.90
20208;DHT22;10263;48.716;8.760;2023-02-23T14:03:46;12.20;99.90
20208;DHT22;10263;48.716;8.760;2023-02-23T14:06:16;12.20;99.90
20208;DHT22;10263;48.716;8.760;2023-02-23T14:08:49;12.20;99.90
20208;DHT22;10263;48.716;8.760;2023-02-23T14:11:45;12.20;99.90
20208;DHT22;10263;48.716;8.760;2023-02-23T14:14:15;12.10;99.90
20208;DHT22;10263;48.716;8.760;2023-02-23T14:17:40;12.20;99.90
20208;DHT22;10263;48.716;8.760;2023-02-23T14:20:17;12.30;99.90
20208;DHT22;10263;48.716;8.760;2023-02-23T14:23:13;12.30;99.90
20208;DHT22;10263;48.716;8.760;2023-02-23T14:25:44;12.30;99.90
20208;DHT22;10263;48.716;8.760;2023-02-23T14:28:22;12.40;99.90
20208;DHT22;10263;48.716;8.760;2023-02-23T14:30:58;12.40;99.90
20208;DHT22;10263;48.716;8.760;2023-02-23T14:33:47;12.40;99.90
20208;DHT22;10263;48.716;8.760;2023-02-23T14:36:36;12.40;99.90
20208;DHT22;10263;48.716;8.760;2023-02-23T14:39:08;12.40;99.90
20208;DHT22;10263;48.716;8.760;2023-02-23T14:41:40;12.30;99.90
20208;DHT22;10263;48.716;8.760;2023-02-23T14:44:13;12.30;99.90
20208;DHT22;10263;48.716;8.760;2023-02-23T14:46:52;12.20;99.90
20208;DHT22;10263;48.716;8.760;2023-02-23T14:49:24;12.20;99.90
20208;DHT22;10263;48.716;8.760;2023-02-23T14:51:54;12.10;99.90
20208;DHT22;10263;48.716;8.760;2023-02-23T14:54:28;12.10;99.90
20208;DHT22;10263;48.716;8.760;2023-02-23T14:56:56;12.10;99.90
20208;DHT22;10263;48.716;8.760;2023-02-23T14:59:26;12.10;99.90
20208;DHT22;10263;48.716;8.760;2023-02-23T15:01:54;12.10;99.90
20208;DHT22;10263;48.716;8.760;2023-02-23T15:04:23;12.10;99.90
20208;DHT22;10263;48.716;8.760;2023-02-23T15:06:56;12.00;99.90
20208;DHT22;10263;48.716;8.760;2023-02-23T15:09:30;12.00;99.90
20208;DHT22;10263;48.716;8.760;2023-02-23T15:12:01;12.00;99.90
20208;DHT22;10263;48.716;8.760;2023-02-23T15:14:30;11.90;99.90
20208;DHT22;10263;48.716;8.760;2023-02-23T15:16:58;12.00;99.90
20208;DHT22;10263;48.716;8.760;2023-02-23T15:19:31;11.80;99.90
20208;DHT22;10263;48.716;8.760;2023-02-23T15:22:02;11.80;99.90
20208;DHT22;10263;48.716;8.760;2023-02-23T15:24:32;11.70;99.90
20208;DHT22;10263;48.716;8.760;2023-02-23T15:26:59;11.70;99.90
20208;DHT22;10263;48.716;8.760;2023-02-23T15:29:30;11.60;99.90
20208;DHT22;10263;48.716;8.760;2023-02-23T15:32:10;11.50;99.90
20208;DHT22;10263;48.716;8.760;2023-02-23T15:34:39;11.50;99.90
20208;DHT22;10263;48.716;8.760;2023-02-23T15:37:13;11.40;99.90
20208;DHT22;10263;48.716;8.760;2023-02-23T15:39:48;11.40;99.90
20208;DHT22;10263;48.716;8.760;2023-02-23T15:42:20;11.30;99.90
20208;DHT22;10263;48.716;8.760;2023-02-23T15:44:53;11.30;99.90
20208;DHT22;10263;48.716;8.760;2023-02-23T15:47:22;11.30;99.90
20208;DHT22;10263;48.716;8.760;2023-02-23T15:50:04;11.30;99.90
20208;DHT22;10263;48.716;8.760;2023-02-23T15:52:34;11.20;99.90
20208;DHT22;10263;48.716;8.760;2023-02-23T15:55:08;11.20;99.90
20208;DHT22;10263;48.716;8.760;2023-02-23T15:57:45;11.10;99.90
20208;DHT22;10263;48.716;8.760;2023-02-23T16:00:19;11.00;99.90
20208;DHT22;10263;48.716;8.760;2023-02-23T16:02:54;11.00;99.90
20208;DHT22;10263;48.716;8.760;2023-02-23T16:05:23;10.90;99.90
20208;DHT22;10263;48.716;8.760;2023-02-23T16:08:03;10.90;99.90
20208;DHT22;10263;48.716;8.760;2023-02-23T16:10:42;10.90;99.90
20208;DHT22;10263;48.716;8.760;2023-02-23T16:13:12;10.80;99.90
20208;DHT22;10263;48.716;8.760;2023-02-23T16:15:39;10.70;99.90
20208;DHT22;10263;48.716;8.760;2023-02-23T16:18:12;10.60;99.90
20208;DHT22;10263;48.716;8.760;2023-02-23T16:20:44;10.60;99.90
20208;DHT22;10263;48.716;8.760;2023-02-23T16:23:22;10.60;99.90